sensor_id;sensor_type;location;lat;lon;timestamp;P1;durP1;ratioP1;P2;durP2;ratioP2
34200;SDS011;20469;55.638;37.670;2023-07-24T00:02:04;5.28;;;3.42;;
34200;SDS011;20469;55.638;37.670;2023-07-24T00:04:32;5.30;;;2.90;;
34200;SDS011;20469;55.638;37.670;2023-07-24T00:07:00;5.90;;;3.08;;
34200;SDS011;20469;55.638;37.670;2023-07-24T00:09:27;7.00;;;3.00;;
34200;SDS011;20469;55.638;37.670;2023-07-24T00:11:55;4.78;;;3.08;;
34200;SDS011;20469;55.638;37.670;2023-07-24T00:14:22;3.15;;;2.55;;
34200;SDS011;20469;55.638;37.670;2023-07-24T00:16:50;5.03;;;2.88;;
34200;SDS011;20469;55.638;37.670;2023-07-24T00:19:17;6.43;;;3.10;;
34200;SDS011;20469;55.638;37.670;2023-07-24T00:21:44;3.63;;;3.08;;
34200;SDS011;20469;55.638;37.670;2023-07-24T00:24:12;4.20;;;3.10;;
34200;SDS011;20469;55.638;37.670;2023-07-24T00:26:39;5.35;;;3.13;;
34200;SDS011;20469;55.638;37.670;2023-07-24T00:29:06;4.22;;;3.25;;
34200;SDS011;20469;55.638;37.670;2023-07-24T00:31:33;3.63;;;2.88;;
34200;SDS011;20469;55.638;37.670;2023-07-24T00:34:00;5.10;;;2.75;;
34200;SDS011;20469;55.638;37.670;2023-07-24T00:36:45;5.00;;;3.00;;
34200;SDS011;20469;55.638;37.670;2023-07-24T00:39:16;4.35;;;3.60;;
34200;SDS011;20469;55.638;37.670;2023-07-24T00:41:43;6.20;;;4.05;;
34200;SDS011;20469;55.638;37.670;2023-07-24T00:44:11;4.63;;;3.45;;
34200;SDS011;20469;55.638;37.670;2023-07-24T00:46:38;4.68;;;3.38;;
34200;SDS011;20469;55.638;37.670;2023-07-24T00:49:05;6.43;;;3.45;;
34200;SDS011;20469;55.638;37.670;2023-07-24T00:51:33;6.65;;;3.80;;
34200;SDS011;20469;55.638;37.670;2023-07-24T00:54:02;6.40;;;3.75;;
34200;SDS011;20469;55.638;37.670;2023-07-24T00:56:31;6.82;;;4.00;;
34200;SDS011;20469;55.638;37.670;2023-07-24T00:59:00;5.53;;;3.47;;
34200;SDS011;20469;55.638;37.670;2023-07-24T01:01:27;5.38;;;3.30;;
34200;SDS011;20469;55.638;37.670;2023-07-24T01:03:56;5.22;;;3.40;;
34200;SDS011;20469;55.638;37.670;2023-07-24T01:06:24;4.35;;;3.17;;
34200;SDS011;20469;55.638;37.670;2023-07-24T01:08:51;4.68;;;3.20;;
34200;SDS011;20469;55.638;37.670;2023-07-24T01:11:19;5.00;;;3.28;;
34200;SDS011;20469;55.638;37.670;2023-07-24T01:13:58;3.95;;;3.30;;
34200;SDS011;20469;55.638;37.670;2023-07-24T01:16:36;5.65;;;3.90;;
34200;SDS011;20469;55.638;37.670;2023-07-24T01:19:08;4.85;;;3.40;;
34200;SDS011;20469;55.638;37.670;2023-07-24T01:22:03;5.18;;;3.50;;
34200;SDS011;20469;55.638;37.670;2023-07-24T01:27:35;5.90;;;3.53;;
34200;SDS011;20469;55.638;37.670;2023-07-24T01:30:02;7.57;;;3.50;;
34200;SDS011;20469;55.638;37.670;2023-07-24T01:32:30;5.13;;;3.35;;
34200;SDS011;20469;55.638;37.670;2023-07-24T01:34:57;5.50;;;3.30;;
34200;SDS011;20469;55.638;37.670;2023-07-24T01:37:24;3.78;;;3.13;;
34200;SDS011;20469;55.638;37.670;2023-07-24T01:39:53;5.95;;;3.28;;
34200;SDS011;20469;55.638;37.670;2023-07-24T01:42:22;5.93;;;3.30;;
34200;SDS011;20469;55.638;37.670;2023-07-24T01:44:54;6.03;;;2.97;;
34200;SDS011;20469;55.638;37.670;2023-07-24T01:47:22;3.90;;;3.08;;
34200;SDS011;20469;55.638;37.670;2023-07-24T01:49:49;6.53;;;3.13;;
34200;SDS011;20469;55.638;37.670;2023-07-24T01:52:17;5.07;;;3.33;;
34200;SDS011;20469;55.638;37.670;2023-07-24T01:54:44;8.18;;;3.17;;
34200;SDS011;20469;55.638;37.670;2023-07-24T01:57:11;8.88;;;3.30;;
34200;SDS011;20469;55.638;37.670;2023-07-24T01:59:38;8.38;;;3.22;;
34200;SDS011;20469;55.638;37.670;2023-07-24T02:02:06;5.72;;;3.17;;
34200;SDS011;20469;55.638;37.670;2023-07-24T02:04:33;6.35;;;3.58;;
34200;SDS011;20469;55.638;37.670;2023-07-24T02:07:00;5.32;;;3.40;;
34200;SDS011;20469;55.638;37.670;2023-07-24T02:09:27;7.28;;;3.70;;
34200;SDS011;20469;55.638;37.670;2023-07-24T02:11:54;6.35;;;4.00;;
34200;SDS011;20469;55.638;37.670;2023-07-24T02:14:22;4.88;;;3.75;;
34200;SDS011;20469;55.638;37.670;2023-07-24T02:16:51;6.88;;;4.95;;
34200;SDS011;20469;55.638;37.670;2023-07-24T02:19:18;6.25;;;4.47;;
34200;SDS011;20469;55.638;37.670;2023-07-24T02:22:05;6.55;;;4.50;;
34200;SDS011;20469;55.638;37.670;2023-07-24T02:24:33;9.68;;;5.10;;
34200;SDS011;20469;55.638;37.670;2023-07-24T02:27:00;7.72;;;4.45;;
34200;SDS011;20469;55.638;37.670;2023-07-24T02:29:28;9.10;;;4.30;;
34200;SDS011;20469;55.638;37.670;2023-07-24T02:31:55;9.00;;;4.40;;
34200;SDS011;20469;55.638;37.670;2023-07-24T02:34:24;6.30;;;4.22;;
34200;SDS011;20469;55.638;37.670;2023-07-24T02:36:52;10.23;;;4.68;;
34200;SDS011;20469;55.638;37.670;2023-07-24T02:39:20;8.30;;;3.58;;
34200;SDS011;20469;55.638;37.670;2023-07-24T02:41:48;7.78;;;4.07;;
34200;SDS011;20469;55.638;37.670;2023-07-24T02:44:15;7.47;;;3.97;;
34200;SDS011;20469;55.638;37.670;2023-07-24T02:46:43;7.00;;;4.70;;
34200;SDS011;20469;55.638;37.670;2023-07-24T02:49:10;8.20;;;3.80;;
34200;SDS011;20469;55.638;37.670;2023-07-24T02:51:37;9.77;;;4.22;;
34200;SDS011;20469;55.638;37.670;2023-07-24T02:54:04;6.15;;;3.78;;
34200;SDS011;20469;55.638;37.670;2023-07-24T02:56:32;7.80;;;3.80;;
34200;SDS011;20469;55.638;37.670;2023-07-24T02:59:00;5.50;;;3.22;;
34200;SDS011;20469;55.638;37.670;2023-07-24T03:01:27;4.15;;;3.28;;
34200;SDS011;20469;55.638;37.670;2023-07-24T03:03:54;9.02;;;3.50;;
34200;SDS011;20469;55.638;37.670;2023-07-24T03:06:21;6.68;;;3.50;;
34200;SDS011;20469;55.638;37.670;2023-07-24T03:08:48;4.93;;;3.33;;
34200;SDS011;20469;55.638;37.670;2023-07-24T03:11:15;5.72;;;3.20;;
34200;SDS011;20469;55.638;37.670;2023-07-24T03:13:43;4.05;;;3.20;;
34200;SDS011;20469;55.638;37.670;2023-07-24T03:16:10;4.63;;;3.42;;
34200;SDS011;20469;55.638;37.670;2023-07-24T03:18:37;6.45;;;3.38;;
34200;SDS011;20469;55.638;37.670;2023-07-24T03:21:04;7.40;;;3.22;;
34200;SDS011;20469;55.638;37.670;2023-07-24T03:23:32;8.02;;;3.83;;
34200;SDS011;20469;55.638;37.670;2023-07-24T03:25:59;6.30;;;3.10;;
34200;SDS011;20469;55.638;37.670;2023-07-24T03:28:26;7.15;;;3.15;;
34200;SDS011;20469;55.638;37.670;2023-07-24T03:30:53;7.00;;;3.35;;
34200;SDS011;20469;55.638;37.670;2023-07-24T03:33:21;8.52;;;4.10;;
34200;SDS011;20469;55.638;37.670;2023-07-24T03:35:48;8.63;;;4.25;;
34200;SDS011;20469;55.638;37.670;2023-07-24T03:38:15;8.32;;;4.00;;
34200;SDS011;20469;55.638;37.670;2023-07-24T03:40:43;7.30;;;3.85;;
34200;SDS011;20469;55.638;37.670;2023-07-24T03:43:10;7.07;;;3.80;;
34200;SDS011;20469;55.638;37.670;2023-07-24T03:45:38;5.20;;;3.33;;
34200;SDS011;20469;55.638;37.670;2023-07-24T03:48:05;6.32;;;2.92;;
34200;SDS011;20469;55.638;37.670;2023-07-24T03:50:32;5.57;;;2.97;;
34200;SDS011;20469;55.638;37.670;2023-07-24T03:52:59;7.72;;;3.00;;
34200;SDS011;20469;55.638;37.670;2023-07-24T03:55:26;5.95;;;2.80;;
34200;SDS011;20469;55.638;37.670;2023-07-24T03:57:54;3.80;;;2.75;;
34200;SDS011;20469;55.638;37.670;2023-07-24T04:00:21;7.93;;;2.65;;
34200;SDS011;20469;55.638;37.670;2023-07-24T04:02:48;4.13;;;2.38;;
34200;SDS011;20469;55.638;37.670;2023-07-24T04:05:16;4.63;;;2.75;;
34200;SDS011;20469;55.638;37.670;2023-07-24T04:07:43;3.75;;;2.65;;
34200;SDS011;20469;55.638;37.670;2023-07-24T04:10:10;6.47;;;2.50;;
34200;SDS011;20469;55.638;37.670;2023-07-24T04:12:37;4.78;;;2.38;;
34200;SDS011;20469;55.638;37.670;2023-07-24T04:15:05;4.78;;;2.90;;
34200;SDS011;20469;55.638;37.670;2023-07-24T04:17:33;4.88;;;2.70;;
34200;SDS011;20469;55.638;37.670;2023-07-24T04:20:02;4.47;;;2.60;;
34200;SDS011;20469;55.638;37.670;2023-07-24T04:22:30;2.78;;;2.47;;
34200;SDS011;20469;55.638;37.670;2023-07-24T04:24:57;3.60;;;2.58;;
34200;SDS011;20469;55.638;37.670;2023-07-24T04:27:24;5.38;;;2.42;;
34200;SDS011;20469;55.638;37.670;2023-07-24T04:29:51;3.78;;;2.47;;
34200;SDS011;20469;55.638;37.670;2023-07-24T04:32:18;5.68;;;2.78;;
34200;SDS011;20469;55.638;37.670;2023-07-24T04:34:46;6.53;;;2.80;;
34200;SDS011;20469;55.638;37.670;2023-07-24T04:37:13;5.05;;;2.28;;
34200;SDS011;20469;55.638;37.670;2023-07-24T04:39:40;3.22;;;2.20;;
34200;SDS011;20469;55.638;37.670;2023-07-24T04:42:07;5.13;;;3.05;;
34200;SDS011;20469;55.638;37.670;2023-07-24T04:44:35;4.47;;;2.35;;
34200;SDS011;20469;55.638;37.670;2023-07-24T04:47:02;5.25;;;2.63;;
34200;SDS011;20469;55.638;37.670;2023-07-24T04:49:29;5.47;;;2.35;;
34200;SDS011;20469;55.638;37.670;2023-07-24T04:51:57;4.88;;;2.50;;
34200;SDS011;20469;55.638;37.670;2023-07-24T04:54:24;4.93;;;2.05;;
34200;SDS011;20469;55.638;37.670;2023-07-24T04:56:51;3.78;;;2.00;;
34200;SDS011;20469;55.638;37.670;2023-07-24T04:59:19;5.28;;;2.05;;
34200;SDS011;20469;55.638;37.670;2023-07-24T05:01:46;4.22;;;1.83;;
34200;SDS011;20469;55.638;37.670;2023-07-24T05:04:13;2.58;;;1.90;;
34200;SDS011;20469;55.638;37.670;2023-07-24T05:06:41;2.97;;;1.77;;
34200;SDS011;20469;55.638;37.670;2023-07-24T05:09:08;5.05;;;1.80;;
34200;SDS011;20469;55.638;37.670;2023-07-24T05:11:35;3.00;;;1.88;;
34200;SDS011;20469;55.638;37.670;2023-07-24T05:14:04;2.55;;;1.75;;
34200;SDS011;20469;55.638;37.670;2023-07-24T05:16:31;4.43;;;1.95;;
34200;SDS011;20469;55.638;37.670;2023-07-24T05:18:59;5.45;;;1.80;;
34200;SDS011;20469;55.638;37.670;2023-07-24T05:21:26;4.22;;;1.77;;
34200;SDS011;20469;55.638;37.670;2023-07-24T05:23:53;2.40;;;1.80;;
34200;SDS011;20469;55.638;37.670;2023-07-24T05:26:21;4.70;;;1.63;;
34200;SDS011;20469;55.638;37.670;2023-07-24T05:28:48;4.47;;;1.60;;
34200;SDS011;20469;55.638;37.670;2023-07-24T05:31:16;4.20;;;1.90;;
34200;SDS011;20469;55.638;37.670;2023-07-24T05:33:43;4.80;;;1.95;;
34200;SDS011;20469;55.638;37.670;2023-07-24T05:36:10;3.47;;;1.77;;
34200;SDS011;20469;55.638;37.670;2023-07-24T05:38:38;5.32;;;1.98;;
34200;SDS011;20469;55.638;37.670;2023-07-24T05:41:05;3.58;;;1.67;;
34200;SDS011;20469;55.638;37.670;2023-07-24T05:43:32;6.30;;;1.80;;
34200;SDS011;20469;55.638;37.670;2023-07-24T05:45:59;3.30;;;1.42;;
34200;SDS011;20469;55.638;37.670;2023-07-24T05:48:26;3.53;;;1.70;;
34200;SDS011;20469;55.638;37.670;2023-07-24T05:50:53;2.90;;;1.70;;
34200;SDS011;20469;55.638;37.670;2023-07-24T05:53:21;4.00;;;1.77;;
34200;SDS011;20469;55.638;37.670;2023-07-24T05:55:55;2.20;;;1.67;;
34200;SDS011;20469;55.638;37.670;2023-07-24T05:58:27;4.60;;;1.50;;
34200;SDS011;20469;55.638;37.670;2023-07-24T06:00:55;3.25;;;1.58;;
34200;SDS011;20469;55.638;37.670;2023-07-24T06:03:22;4.00;;;1.90;;
34200;SDS011;20469;55.638;37.670;2023-07-24T06:05:53;4.50;;;2.10;;
34200;SDS011;20469;55.638;37.670;2023-07-24T06:08:21;6.03;;;2.20;;
34200;SDS011;20469;55.638;37.670;2023-07-24T06:10:49;2.63;;;1.52;;
34200;SDS011;20469;55.638;37.670;2023-07-24T06:13:17;3.60;;;1.58;;
34200;SDS011;20469;55.638;37.670;2023-07-24T06:15:46;3.05;;;1.80;;
34200;SDS011;20469;55.638;37.670;2023-07-24T06:18:15;4.20;;;2.03;;
34200;SDS011;20469;55.638;37.670;2023-07-24T06:20:42;4.03;;;1.67;;
34200;SDS011;20469;55.638;37.670;2023-07-24T06:23:09;4.60;;;1.70;;
34200;SDS011;20469;55.638;37.670;2023-07-24T06:25:37;4.53;;;1.65;;
34200;SDS011;20469;55.638;37.670;2023-07-24T06:28:04;1.92;;;1.40;;
34200;SDS011;20469;55.638;37.670;2023-07-24T06:30:31;5.05;;;2.10;;
34200;SDS011;20469;55.638;37.670;2023-07-24T06:32:59;3.70;;;1.80;;
34200;SDS011;20469;55.638;37.670;2023-07-24T06:35:26;4.18;;;1.98;;
34200;SDS011;20469;55.638;37.670;2023-07-24T06:37:53;4.50;;;2.00;;
34200;SDS011;20469;55.638;37.670;2023-07-24T06:40:21;3.58;;;1.50;;
34200;SDS011;20469;55.638;37.670;2023-07-24T06:42:48;3.15;;;1.60;;
34200;SDS011;20469;55.638;37.670;2023-07-24T06:45:15;4.72;;;1.63;;
34200;SDS011;20469;55.638;37.670;2023-07-24T06:47:43;4.40;;;1.48;;
34200;SDS011;20469;55.638;37.670;2023-07-24T06:50:10;15.98;;;1.70;;
34200;SDS011;20469;55.638;37.670;2023-07-24T06:52:37;3.97;;;1.60;;
34200;SDS011;20469;55.638;37.670;2023-07-24T06:55:04;7.07;;;1.52;;
34200;SDS011;20469;55.638;37.670;2023-07-24T06:57:32;5.93;;;1.55;;
34200;SDS011;20469;55.638;37.670;2023-07-24T06:59:59;8.63;;;2.05;;
34200;SDS011;20469;55.638;37.670;2023-07-24T07:02:33;3.80;;;1.83;;
34200;SDS011;20469;55.638;37.670;2023-07-24T07:05:00;6.50;;;1.77;;
34200;SDS011;20469;55.638;37.670;2023-07-24T07:07:30;8.15;;;2.10;;
34200;SDS011;20469;55.638;37.670;2023-07-24T07:09:57;6.70;;;1.70;;
34200;SDS011;20469;55.638;37.670;2023-07-24T07:12:24;8.52;;;1.83;;
34200;SDS011;20469;55.638;37.670;2023-07-24T07:14:52;5.50;;;1.90;;
34200;SDS011;20469;55.638;37.670;2023-07-24T07:17:19;4.60;;;1.50;;
34200;SDS011;20469;55.638;37.670;2023-07-24T07:19:46;2.78;;;1.60;;
34200;SDS011;20469;55.638;37.670;2023-07-24T07:22:14;4.28;;;1.50;;
34200;SDS011;20469;55.638;37.670;2023-07-24T07:24:41;1.70;;;1.38;;
34200;SDS011;20469;55.638;37.670;2023-07-24T07:27:10;1.90;;;1.48;;
34200;SDS011;20469;55.638;37.670;2023-07-24T07:29:37;2.25;;;1.30;;
34200;SDS011;20469;55.638;37.670;2023-07-24T07:32:05;3.55;;;1.70;;
34200;SDS011;20469;55.638;37.670;2023-07-24T07:34:32;2.92;;;1.70;;
34200;SDS011;20469;55.638;37.670;2023-07-24T07:37:01;3.90;;;1.52;;
34200;SDS011;20469;55.638;37.670;2023-07-24T07:39:28;3.65;;;1.80;;
34200;SDS011;20469;55.638;37.670;2023-07-24T07:41:55;3.03;;;1.50;;
34200;SDS011;20469;55.638;37.670;2023-07-24T07:44:41;2.33;;;1.52;;
34200;SDS011;20469;55.638;37.670;2023-07-24T07:47:08;4.90;;;1.92;;
34200;SDS011;20469;55.638;37.670;2023-07-24T07:49:35;3.05;;;1.80;;
34200;SDS011;20469;55.638;37.670;2023-07-24T07:52:03;2.92;;;1.83;;
34200;SDS011;20469;55.638;37.670;2023-07-24T07:54:30;1.88;;;1.40;;
34200;SDS011;20469;55.638;37.670;2023-07-24T07:56:57;4.53;;;1.85;;
34200;SDS011;20469;55.638;37.670;2023-07-24T07:59:24;2.28;;;1.75;;
34200;SDS011;20469;55.638;37.670;2023-07-24T08:01:52;3.83;;;2.00;;
34200;SDS011;20469;55.638;37.670;2023-07-24T08:04:19;3.45;;;2.10;;
34200;SDS011;20469;55.638;37.670;2023-07-24T08:06:46;3.40;;;1.73;;
34200;SDS011;20469;55.638;37.670;2023-07-24T08:09:13;3.72;;;1.85;;
34200;SDS011;20469;55.638;37.670;2023-07-24T08:11:41;5.82;;;1.90;;
34200;SDS011;20469;55.638;37.670;2023-07-24T08:14:08;4.20;;;1.70;;
34200;SDS011;20469;55.638;37.670;2023-07-24T08:16:36;3.22;;;1.85;;
34200;SDS011;20469;55.638;37.670;2023-07-24T08:19:03;1.80;;;1.45;;
34200;SDS011;20469;55.638;37.670;2023-07-24T08:21:30;5.25;;;2.10;;
34200;SDS011;20469;55.638;37.670;2023-07-24T08:23:58;4.55;;;2.17;;
34200;SDS011;20469;55.638;37.670;2023-07-24T08:26:26;4.30;;;1.92;;
34200;SDS011;20469;55.638;37.670;2023-07-24T08:28:54;5.00;;;2.10;;
34200;SDS011;20469;55.638;37.670;2023-07-24T08:31:21;4.63;;;2.05;;
34200;SDS011;20469;55.638;37.670;2023-07-24T08:33:49;3.88;;;2.28;;
34200;SDS011;20469;55.638;37.670;2023-07-24T08:36:16;3.65;;;2.00;;
34200;SDS011;20469;55.638;37.670;2023-07-24T08:38:43;3.22;;;1.90;;
34200;SDS011;20469;55.638;37.670;2023-07-24T08:41:11;2.72;;;1.83;;
34200;SDS011;20469;55.638;37.670;2023-07-24T08:43:41;2.78;;;1.92;;
34200;SDS011;20469;55.638;37.670;2023-07-24T08:46:09;4.43;;;2.08;;
34200;SDS011;20469;55.638;37.670;2023-07-24T08:48:40;2.78;;;2.08;;
34200;SDS011;20469;55.638;37.670;2023-07-24T08:51:09;3.33;;;2.05;;
34200;SDS011;20469;55.638;37.670;2023-07-24T08:53:42;2.72;;;2.03;;
34200;SDS011;20469;55.638;37.670;2023-07-24T08:56:10;4.30;;;2.38;;
34200;SDS011;20469;55.638;37.670;2023-07-24T08:58:39;3.30;;;2.33;;
34200;SDS011;20469;55.638;37.670;2023-07-24T09:01:07;3.42;;;2.10;;
34200;SDS011;20469;55.638;37.670;2023-07-24T09:03:35;3.72;;;1.95;;
34200;SDS011;20469;55.638;37.670;2023-07-24T09:06:03;4.07;;;2.30;;
34200;SDS011;20469;55.638;37.670;2023-07-24T09:08:38;5.50;;;2.80;;
34200;SDS011;20469;55.638;37.670;2023-07-24T09:11:07;3.75;;;2.30;;
34200;SDS011;20469;55.638;37.670;2023-07-24T09:13:37;6.40;;;2.20;;
34200;SDS011;20469;55.638;37.670;2023-07-24T09:16:07;6.80;;;3.80;;
34200;SDS011;20469;55.638;37.670;2023-07-24T09:18:41;6.10;;;3.33;;
34200;SDS011;20469;55.638;37.670;2023-07-24T09:21:10;6.40;;;3.78;;
34200;SDS011;20469;55.638;37.670;2023-07-24T09:23:40;16.40;;;8.40;;
34200;SDS011;20469;55.638;37.670;2023-07-24T09:26:09;12.57;;;7.32;;
34200;SDS011;20469;55.638;37.670;2023-07-24T09:28:37;4.95;;;2.70;;
34200;SDS011;20469;55.638;37.670;2023-07-24T09:31:04;6.63;;;3.35;;
34200;SDS011;20469;55.638;37.670;2023-07-24T09:33:38;4.93;;;2.95;;
34200;SDS011;20469;55.638;37.670;2023-07-24T09:36:07;3.67;;;2.67;;
34200;SDS011;20469;55.638;37.670;2023-07-24T09:38:36;5.00;;;2.85;;
34200;SDS011;20469;55.638;37.670;2023-07-24T09:41:05;3.60;;;2.10;;
34200;SDS011;20469;55.638;37.670;2023-07-24T09:43:33;3.33;;;2.30;;
34200;SDS011;20469;55.638;37.670;2023-07-24T09:46:07;3.28;;;2.30;;
34200;SDS011;20469;55.638;37.670;2023-07-24T09:48:37;3.80;;;2.20;;
34200;SDS011;20469;55.638;37.670;2023-07-24T09:51:09;3.75;;;2.15;;
34200;SDS011;20469;55.638;37.670;2023-07-24T09:53:43;3.38;;;2.50;;
34200;SDS011;20469;55.638;37.670;2023-07-24T09:56:19;3.50;;;2.20;;
34200;SDS011;20469;55.638;37.670;2023-07-24T09:59:00;5.13;;;2.53;;
34200;SDS011;20469;55.638;37.670;2023-07-24T10:01:30;3.80;;;2.58;;
34200;SDS011;20469;55.638;37.670;2023-07-24T10:03:59;3.72;;;2.50;;
34200;SDS011;20469;55.638;37.670;2023-07-24T10:06:27;4.43;;;2.53;;
34200;SDS011;20469;55.638;37.670;2023-07-24T10:08:57;4.30;;;2.85;;
34200;SDS011;20469;55.638;37.670;2023-07-24T10:11:25;4.65;;;2.72;;
34200;SDS011;20469;55.638;37.670;2023-07-24T10:13:53;3.95;;;2.45;;
34200;SDS011;20469;55.638;37.670;2023-07-24T10:16:21;2.80;;;1.95;;
34200;SDS011;20469;55.638;37.670;2023-07-24T10:18:48;3.55;;;2.00;;
34200;SDS011;20469;55.638;37.670;2023-07-24T10:21:15;3.03;;;2.20;;
34200;SDS011;20469;55.638;37.670;2023-07-24T10:23:43;2.20;;;2.00;;
34200;SDS011;20469;55.638;37.670;2023-07-24T10:26:14;7.03;;;2.47;;
34200;SDS011;20469;55.638;37.670;2023-07-24T10:28:47;3.13;;;2.53;;
34200;SDS011;20469;55.638;37.670;2023-07-24T10:31:22;3.05;;;2.40;;
34200;SDS011;20469;55.638;37.670;2023-07-24T10:33:54;3.95;;;2.35;;
34200;SDS011;20469;55.638;37.670;2023-07-24T10:36:23;4.30;;;2.63;;
34200;SDS011;20469;55.638;37.670;2023-07-24T10:38:54;5.57;;;4.50;;
34200;SDS011;20469;55.638;37.670;2023-07-24T10:41:33;6.70;;;2.95;;
34200;SDS011;20469;55.638;37.670;2023-07-24T10:44:02;3.83;;;2.80;;
34200;SDS011;20469;55.638;37.670;2023-07-24T10:46:36;4.53;;;2.58;;
34200;SDS011;20469;55.638;37.670;2023-07-24T10:49:06;4.25;;;2.50;;
34200;SDS011;20469;55.638;37.670;2023-07-24T10:51:34;4.95;;;2.50;;
34200;SDS011;20469;55.638;37.670;2023-07-24T10:54:04;3.95;;;3.03;;
34200;SDS011;20469;55.638;37.670;2023-07-24T10:56:32;3.30;;;2.40;;
34200;SDS011;20469;55.638;37.670;2023-07-24T10:59:03;3.80;;;2.60;;
34200;SDS011;20469;55.638;37.670;2023-07-24T11:01:31;4.43;;;2.65;;
34200;SDS011;20469;55.638;37.670;2023-07-24T11:04:01;5.00;;;2.40;;
34200;SDS011;20469;55.638;37.670;2023-07-24T11:06:28;7.47;;;3.10;;
34200;SDS011;20469;55.638;37.670;2023-07-24T11:08:57;4.72;;;2.72;;
34200;SDS011;20469;55.638;37.670;2023-07-24T11:13:58;5.35;;;2.38;;
34200;SDS011;20469;55.638;37.670;2023-07-24T11:16:26;4.55;;;2.40;;
34200;SDS011;20469;55.638;37.670;2023-07-24T11:18:56;3.38;;;2.40;;
34200;SDS011;20469;55.638;37.670;2023-07-24T11:21:24;4.72;;;2.78;;
34200;SDS011;20469;55.638;37.670;2023-07-24T11:23:52;6.25;;;2.80;;
34200;SDS011;20469;55.638;37.670;2023-07-24T11:26:21;5.47;;;3.25;;
34200;SDS011;20469;55.638;37.670;2023-07-24T11:28:49;5.95;;;2.90;;
34200;SDS011;20469;55.638;37.670;2023-07-24T11:31:17;10.05;;;3.70;;
34200;SDS011;20469;55.638;37.670;2023-07-24T11:33:48;4.32;;;2.67;;
34200;SDS011;20469;55.638;37.670;2023-07-24T11:36:17;7.30;;;3.40;;
34200;SDS011;20469;55.638;37.670;2023-07-24T11:38:45;7.32;;;4.18;;
34200;SDS011;20469;55.638;37.670;2023-07-24T11:41:13;6.40;;;3.30;;
34200;SDS011;20469;55.638;37.670;2023-07-24T11:43:48;6.88;;;3.72;;
34200;SDS011;20469;55.638;37.670;2023-07-24T11:46:26;7.93;;;3.35;;
34200;SDS011;20469;55.638;37.670;2023-07-24T11:48:55;5.97;;;3.00;;
34200;SDS011;20469;55.638;37.670;2023-07-24T11:51:25;4.15;;;3.03;;
34200;SDS011;20469;55.638;37.670;2023-07-24T11:54:07;6.90;;;3.58;;
34200;SDS011;20469;55.638;37.670;2023-07-24T11:56:39;4.43;;;3.20;;
34200;SDS011;20469;55.638;37.670;2023-07-24T11:59:12;5.50;;;3.10;;
34200;SDS011;20469;55.638;37.670;2023-07-24T12:01:41;7.57;;;3.53;;
34200;SDS011;20469;55.638;37.670;2023-07-24T12:04:13;6.63;;;3.80;;
34200;SDS011;20469;55.638;37.670;2023-07-24T12:06:41;6.53;;;4.07;;
34200;SDS011;20469;55.638;37.670;2023-07-24T12:09:08;5.65;;;3.60;;
34200;SDS011;20469;55.638;37.670;2023-07-24T12:11:41;4.97;;;3.50;;
34200;SDS011;20469;55.638;37.670;2023-07-24T12:14:15;6.20;;;3.80;;
34200;SDS011;20469;55.638;37.670;2023-07-24T12:16:42;6.30;;;3.60;;
34200;SDS011;20469;55.638;37.670;2023-07-24T12:19:10;8.68;;;4.55;;
34200;SDS011;20469;55.638;37.670;2023-07-24T12:21:40;10.05;;;4.80;;
34200;SDS011;20469;55.638;37.670;2023-07-24T12:24:08;7.50;;;4.35;;
34200;SDS011;20469;55.638;37.670;2023-07-24T12:26:35;5.47;;;3.83;;
34200;SDS011;20469;55.638;37.670;2023-07-24T12:29:02;7.25;;;4.13;;
34200;SDS011;20469;55.638;37.670;2023-07-24T12:31:30;5.63;;;3.58;;
34200;SDS011;20469;55.638;37.670;2023-07-24T12:33:58;6.05;;;4.30;;
34200;SDS011;20469;55.638;37.670;2023-07-24T12:36:25;6.38;;;3.65;;
34200;SDS011;20469;55.638;37.670;2023-07-24T12:38:52;7.30;;;3.75;;
34200;SDS011;20469;55.638;37.670;2023-07-24T12:41:20;5.53;;;3.53;;
34200;SDS011;20469;55.638;37.670;2023-07-24T12:43:47;6.35;;;3.88;;
34200;SDS011;20469;55.638;37.670;2023-07-24T12:46:14;4.72;;;4.00;;
34200;SDS011;20469;55.638;37.670;2023-07-24T12:48:42;6.53;;;4.15;;
34200;SDS011;20469;55.638;37.670;2023-07-24T12:51:09;8.52;;;4.70;;
34200;SDS011;20469;55.638;37.670;2023-07-24T12:53:36;7.78;;;4.82;;
34200;SDS011;20469;55.638;37.670;2023-07-24T12:56:09;9.57;;;4.57;;
34200;SDS011;20469;55.638;37.670;2023-07-24T12:58:36;7.53;;;5.07;;
34200;SDS011;20469;55.638;37.670;2023-07-24T13:01:04;6.95;;;4.35;;
34200;SDS011;20469;55.638;37.670;2023-07-24T13:03:33;6.53;;;4.97;;
34200;SDS011;20469;55.638;37.670;2023-07-24T13:06:00;6.13;;;4.40;;
34200;SDS011;20469;55.638;37.670;2023-07-24T13:08:27;5.05;;;3.97;;
34200;SDS011;20469;55.638;37.670;2023-07-24T13:10:55;6.45;;;4.72;;
34200;SDS011;20469;55.638;37.670;2023-07-24T13:13:22;8.65;;;4.88;;
34200;SDS011;20469;55.638;37.670;2023-07-24T13:15:49;6.30;;;4.57;;
34200;SDS011;20469;55.638;37.670;2023-07-24T13:18:17;8.20;;;5.57;;
34200;SDS011;20469;55.638;37.670;2023-07-24T13:20:57;8.00;;;4.80;;
34200;SDS011;20469;55.638;37.670;2023-07-24T13:23:25;7.00;;;5.10;;
34200;SDS011;20469;55.638;37.670;2023-07-24T13:25:52;9.73;;;5.53;;
34200;SDS011;20469;55.638;37.670;2023-07-24T13:28:20;7.20;;;4.80;;
34200;SDS011;20469;55.638;37.670;2023-07-24T13:30:47;8.65;;;4.97;;
34200;SDS011;20469;55.638;37.670;2023-07-24T13:33:14;6.07;;;4.88;;
34200;SDS011;20469;55.638;37.670;2023-07-24T13:35:42;7.63;;;5.07;;
34200;SDS011;20469;55.638;37.670;2023-07-24T13:38:09;7.60;;;5.65;;
34200;SDS011;20469;55.638;37.670;2023-07-24T13:40:36;7.50;;;4.90;;
34200;SDS011;20469;55.638;37.670;2023-07-24T13:43:04;7.28;;;5.07;;
34200;SDS011;20469;55.638;37.670;2023-07-24T13:45:31;7.75;;;5.38;;
34200;SDS011;20469;55.638;37.670;2023-07-24T13:47:58;9.93;;;5.45;;
34200;SDS011;20469;55.638;37.670;2023-07-24T13:50:26;9.20;;;5.78;;
34200;SDS011;20469;55.638;37.670;2023-07-24T13:52:53;7.43;;;5.68;;
34200;SDS011;20469;55.638;37.670;2023-07-24T13:55:20;10.05;;;5.88;;
34200;SDS011;20469;55.638;37.670;2023-07-24T13:57:48;11.07;;;5.88;;
34200;SDS011;20469;55.638;37.670;2023-07-24T14:00:15;9.23;;;5.95;;
34200;SDS011;20469;55.638;37.670;2023-07-24T14:02:43;10.90;;;6.53;;
34200;SDS011;20469;55.638;37.670;2023-07-24T14:05:11;8.45;;;5.75;;
34200;SDS011;20469;55.638;37.670;2023-07-24T14:07:39;9.35;;;5.82;;
34200;SDS011;20469;55.638;37.670;2023-07-24T14:10:06;9.05;;;5.53;;
34200;SDS011;20469;55.638;37.670;2023-07-24T14:12:34;6.78;;;5.03;;
34200;SDS011;20469;55.638;37.670;2023-07-24T14:15:02;9.52;;;5.63;;
34200;SDS011;20469;55.638;37.670;2023-07-24T14:17:31;7.45;;;5.10;;
34200;SDS011;20469;55.638;37.670;2023-07-24T14:19:59;9.07;;;4.95;;
34200;SDS011;20469;55.638;37.670;2023-07-24T14:22:26;8.55;;;5.22;;
34200;SDS011;20469;55.638;37.670;2023-07-24T14:24:53;12.40;;;4.97;;
34200;SDS011;20469;55.638;37.670;2023-07-24T14:27:21;6.93;;;4.93;;
34200;SDS011;20469;55.638;37.670;2023-07-24T14:29:48;6.68;;;4.95;;
34200;SDS011;20469;55.638;37.670;2023-07-24T14:32:15;7.25;;;5.10;;
34200;SDS011;20469;55.638;37.670;2023-07-24T14:34:43;8.45;;;5.15;;
34200;SDS011;20469;55.638;37.670;2023-07-24T14:37:10;5.95;;;5.05;;
34200;SDS011;20469;55.638;37.670;2023-07-24T14:39:37;5.80;;;4.75;;
34200;SDS011;20469;55.638;37.670;2023-07-24T14:42:04;9.13;;;5.60;;
34200;SDS011;20469;55.638;37.670;2023-07-24T14:44:32;9.05;;;5.50;;
34200;SDS011;20469;55.638;37.670;2023-07-24T14:46:59;10.50;;;5.55;;